sensor_id;sensor_type;location;lat;lon;timestamp;pressure;altitude;pressure_sealevel;temperature;humidity
25498;BME280;13406;53.380;7.226;2024-02-26T00:01:07;99826.94;;;2.24;100.00
25498;BME280;13406;53.380;7.226;2024-02-26T00:03:33;99854.66;;;2.44;100.00
25498;BME280;13406;53.380;7.226;2024-02-26T00:06:01;99886.06;;;2.56;100.00
25498;BME280;13406;53.380;7.226;2024-02-26T00:08:27;99956.75;;;3.03;100.00
25498;BME280;13406;53.380;7.226;2024-02-26T00:10:53;99887.22;;;2.53;100.00
25498;BME280;13406;53.380;7.226;2024-02-26T00:13:19;99960.41;;;3.02;100.00
25498;BME280;13406;53.380;7.226;2024-02-26T00:15:45;100011.31;;;3.28;100.00
25498;BME280;13406;53.380;7.226;2024-02-26T00:18:11;99950.25;;;3.13;100.00
25498;BME280;13406;53.380;7.226;2024-02-26T00:20:36;99839.78;;;2.43;100.00
25498;BME280;13406;53.380;7.226;2024-02-26T00:23:02;99856.94;;;2.56;100.00
25498;BME280;13406;53.380;7.226;2024-02-26T00:25:27;99865.09;;;2.38;100.00
25498;BME280;13406;53.380;7.226;2024-02-26T00:27:53;99909.88;;;2.56;100.00
25498;BME280;13406;53.380;7.226;2024-02-26T00:30:19;99943.00;;;3.07;100.00
25498;BME280;13406;53.380;7.226;2024-02-26T00:32:45;99905.53;;;2.71;100.00
25498;BME280;13406;53.380;7.226;2024-02-26T00:35:10;100039.72;;;3.51;100.00
25498;BME280;13406;53.380;7.226;2024-02-26T00:37:35;99947.13;;;3.10;100.00
25498;BME280;13406;53.380;7.226;2024-02-26T00:40:01;99832.88;;;2.26;100.00
25498;BME280;13406;53.380;7.226;2024-02-26T00:42:27;99884.56;;;2.53;100.00
25498;BME280;13406;53.380;7.226;2024-02-26T00:44:52;99914.34;;;3.03;100.00
25498;BME280;13406;53.380;7.226;2024-02-26T00:47:17;99914.13;;;2.73;100.00
25498;BME280;13406;53.380;7.226;2024-02-26T00:49:43;99902.38;;;2.76;100.00
25498;BME280;13406;53.380;7.226;2024-02-26T00:52:08;99853.94;;;2.59;100.00
25498;BME280;13406;53.380;7.226;2024-02-26T00:54:34;99941.97;;;3.08;100.00
25498;BME280;13406;53.380;7.226;2024-02-26T00:56:59;99851.31;;;2.59;100.00
25498;BME280;13406;53.380;7.226;2024-02-26T00:59:24;99948.19;;;3.24;100.00
25498;BME280;13406;53.380;7.226;2024-02-26T01:01:50;99986.66;;;3.20;100.00
25498;BME280;13406;53.380;7.226;2024-02-26T01:04:17;99894.13;;;2.62;100.00
25498;BME280;13406;53.380;7.226;2024-02-26T01:06:43;99991.38;;;3.32;100.00
25498;BME280;13406;53.380;7.226;2024-02-26T01:09:11;99886.81;;;2.81;100.00
25498;BME280;13406;53.380;7.226;2024-02-26T01:11:36;99881.66;;;2.79;100.00
25498;BME280;13406;53.380;7.226;2024-02-26T01:14:02;99981.22;;;3.44;100.00
25498;BME280;13406;53.380;7.226;2024-02-26T01:16:29;99996.25;;;3.60;100.00
25498;BME280;13406;53.380;7.226;2024-02-26T01:18:54;99995.53;;;3.66;100.00
25498;BME280;13406;53.380;7.226;2024-02-26T01:21:20;99990.25;;;3.66;100.00
25498;BME280;13406;53.380;7.226;2024-02-26T01:23:45;99877.00;;;2.89;100.00
25498;BME280;13406;53.380;7.226;2024-02-26T01:26:11;99972.88;;;3.55;100.00
25498;BME280;13406;53.380;7.226;2024-02-26T01:28:36;99869.06;;;2.89;100.00
25498;BME280;13406;53.380;7.226;2024-02-26T01:31:01;99860.97;;;2.83;100.00
25498;BME280;13406;53.380;7.226;2024-02-26T01:33:30;99949.91;;;3.48;100.00
25498;BME280;13406;53.380;7.226;2024-02-26T01:35:55;99905.16;;;3.22;100.00
25498;BME280;13406;53.380;7.226;2024-02-26T01:38:21;99947.78;;;3.43;100.00
25498;BME280;13406;53.380;7.226;2024-02-26T01:40:46;99777.06;;;2.44;100.00
25498;BME280;13406;53.380;7.226;2024-02-26T01:43:12;99831.28;;;2.56;100.00
25498;BME280;13406;53.380;7.226;2024-02-26T01:45:37;99756.88;;;2.12;100.00
25498;BME280;13406;53.380;7.226;2024-02-26T01:48:02;99883.22;;;3.05;100.00
25498;BME280;13406;53.380;7.226;2024-02-26T01:50:28;99919.59;;;3.19;100.00
25498;BME280;13406;53.380;7.226;2024-02-26T01:52:54;99814.41;;;2.57;100.00
25498;BME280;13406;53.380;7.226;2024-02-26T01:55:22;99901.50;;;3.23;100.00
25498;BME280;13406;53.380;7.226;2024-02-26T01:57:50;99807.84;;;2.84;100.00
25498;BME280;13406;53.380;7.226;2024-02-26T02:00:18;99773.91;;;2.80;100.00
25498;BME280;13406;53.380;7.226;2024-02-26T02:02:44;99901.50;;;3.54;100.00
25498;BME280;13406;53.380;7.226;2024-02-26T02:05:12;99778.47;;;2.63;100.00
25498;BME280;13406;53.380;7.226;2024-02-26T02:07:40;99815.06;;;2.59;100.00
25498;BME280;13406;53.380;7.226;2024-02-26T02:10:06;99761.19;;;2.44;100.00
25498;BME280;13406;53.380;7.226;2024-02-26T02:12:32;99923.53;;;3.23;100.00
25498;BME280;13406;53.380;7.226;2024-02-26T02:15:00;99797.22;;;2.53;100.00
25498;BME280;13406;53.380;7.226;2024-02-26T02:17:26;99862.72;;;2.99;100.00
25498;BME280;13406;53.380;7.226;2024-02-26T02:19:52;99918.88;;;3.25;100.00
25498;BME280;13406;53.380;7.226;2024-02-26T02:22:18;99752.03;;;2.23;100.00
25498;BME280;13406;53.380;7.226;2024-02-26T02:24:44;99758.34;;;2.14;100.00
25498;BME280;13406;53.380;7.226;2024-02-26T02:27:09;99816.44;;;2.47;100.00
25498;BME280;13406;53.380;7.226;2024-02-26T02:29:36;99874.13;;;2.99;100.00
25498;BME280;13406;53.380;7.226;2024-02-26T02:32:01;99801.56;;;2.46;100.00
25498;BME280;13406;53.380;7.226;2024-02-26T02:34:28;99800.78;;;2.29;100.00
25498;BME280;13406;53.380;7.226;2024-02-26T02:36:54;99812.28;;;2.53;100.00
25498;BME280;13406;53.380;7.226;2024-02-26T02:39:21;99772.97;;;2.72;100.00
25498;BME280;13406;53.380;7.226;2024-02-26T02:41:46;99912.31;;;3.67;100.00
25498;BME280;13406;53.380;7.226;2024-02-26T02:44:12;99696.19;;;2.41;100.00
25498;BME280;13406;53.380;7.226;2024-02-26T02:46:40;99790.84;;;3.02;100.00
25498;BME280;13406;53.380;7.226;2024-02-26T02:49:09;99828.81;;;3.17;100.00
25498;BME280;13406;53.380;7.226;2024-02-26T02:51:37;99755.91;;;2.44;100.00
25498;BME280;13406;53.380;7.226;2024-02-26T02:54:03;99861.47;;;3.09;100.00
25498;BME280;13406;53.380;7.226;2024-02-26T02:56:29;99837.16;;;3.06;100.00
25498;BME280;13406;53.380;7.226;2024-02-26T02:58:54;99867.78;;;3.39;100.00
25498;BME280;13406;53.380;7.226;2024-02-26T03:01:19;99860.13;;;3.22;100.00
25498;BME280;13406;53.380;7.226;2024-02-26T03:03:45;99723.84;;;2.39;100.00
25498;BME280;13406;53.380;7.226;2024-02-26T03:06:10;99678.13;;;2.14;100.00
25498;BME280;13406;53.380;7.226;2024-02-26T03:08:36;99719.03;;;2.34;100.00
25498;BME280;13406;53.380;7.226;2024-02-26T03:11:06;99733.59;;;2.38;100.00
25498;BME280;13406;53.380;7.226;2024-02-26T03:13:32;99747.81;;;2.68;100.00
25498;BME280;13406;53.380;7.226;2024-02-26T03:15:57;99784.78;;;2.93;100.00
25498;BME280;13406;53.380;7.226;2024-02-26T03:18:23;99693.34;;;2.20;100.00
25498;BME280;13406;53.380;7.226;2024-02-26T03:20:49;99689.84;;;1.88;100.00
25498;BME280;13406;53.380;7.226;2024-02-26T03:23:14;99840.09;;;2.88;100.00
25498;BME280;13406;53.380;7.226;2024-02-26T03:25:45;99771.88;;;2.59;100.00
25498;BME280;13406;53.380;7.226;2024-02-26T03:28:13;99772.47;;;2.38;100.00
25498;BME280;13406;53.380;7.226;2024-02-26T03:30:39;99893.63;;;3.06;100.00
25498;BME280;13406;53.380;7.226;2024-02-26T03:33:04;99833.28;;;2.54;100.00
25498;BME280;13406;53.380;7.226;2024-02-26T03:35:30;99749.28;;;2.09;100.00
25498;BME280;13406;53.380;7.226;2024-02-26T03:37:55;99751.91;;;2.09;100.00
25498;BME280;13406;53.380;7.226;2024-02-26T03:40:21;99775.03;;;2.15;100.00
25498;BME280;13406;53.380;7.226;2024-02-26T03:42:46;99807.22;;;2.35;100.00
25498;BME280;13406;53.380;7.226;2024-02-26T03:45:12;99897.84;;;2.92;100.00
25498;BME280;13406;53.380;7.226;2024-02-26T03:47:38;99902.13;;;2.93;100.00
25498;BME280;13406;53.380;7.226;2024-02-26T03:50:06;99780.31;;;2.15;100.00
25498;BME280;13406;53.380;7.226;2024-02-26T03:52:32;99913.78;;;2.84;100.00
25498;BME280;13406;53.380;7.226;2024-02-26T03:54:58;99794.50;;;2.30;100.00
25498;BME280;13406;53.380;7.226;2024-02-26T03:57:23;99926.09;;;3.08;100.00
25498;BME280;13406;53.380;7.226;2024-02-26T03:59:49;99867.81;;;3.00;100.00
25498;BME280;13406;53.380;7.226;2024-02-26T04:02:14;99789.13;;;2.55;100.00
25498;BME280;13406;53.380;7.226;2024-02-26T04:04:39;99733.59;;;2.38;100.00
25498;BME280;13406;53.380;7.226;2024-02-26T04:07:05;99822.72;;;2.85;100.00
25498;BME280;13406;53.380;7.226;2024-02-26T04:09:33;99804.78;;;2.96;100.00
25498;BME280;13406;53.380;7.226;2024-02-26T04:11:58;99723.22;;;2.29;100.00
25498;BME280;13406;53.380;7.226;2024-02-26T04:14:24;99720.59;;;2.83;100.00
25498;BME280;13406;53.380;7.226;2024-02-26T04:16:49;99704.59;;;2.76;100.00
25498;BME280;13406;53.380;7.226;2024-02-26T04:19:17;99799.16;;;3.45;100.00
25498;BME280;13406;53.380;7.226;2024-02-26T04:21:43;99790.03;;;3.47;100.00
25498;BME280;13406;53.380;7.226;2024-02-26T04:24:08;99714.44;;;2.90;100.00
25498;BME280;13406;53.380;7.226;2024-02-26T04:26:34;99849.22;;;3.39;100.00
25498;BME280;13406;53.380;7.226;2024-02-26T04:29:00;99731.53;;;2.80;100.00
25498;BME280;13406;53.380;7.226;2024-02-26T04:31:25;99611.75;;;2.00;100.00
25498;BME280;13406;53.380;7.226;2024-02-26T04:33:55;99458.53;;;1.13;100.00
25498;BME280;13406;53.380;7.226;2024-02-26T04:36:21;99489.81;;;1.33;100.00
25498;BME280;13406;53.380;7.226;2024-02-26T04:38:47;99463.84;;;1.05;100.00
25498;BME280;13406;53.380;7.226;2024-02-26T04:41:12;99576.56;;;2.00;100.00
25498;BME280;13406;53.380;7.226;2024-02-26T04:43:38;99675.75;;;2.58;100.00
25498;BME280;13406;53.380;7.226;2024-02-26T04:46:10;99548.91;;;1.79;100.00
25498;BME280;13406;53.380;7.226;2024-02-26T04:48:36;99664.84;;;2.53;100.00
25498;BME280;13406;53.380;7.226;2024-02-26T04:51:03;99499.44;;;1.26;100.00
25498;BME280;13406;53.380;7.226;2024-02-26T04:53:29;99507.63;;;1.39;100.00
25498;BME280;13406;53.380;7.226;2024-02-26T04:55:55;99578.41;;;1.91;100.00
25498;BME280;13406;53.380;7.226;2024-02-26T04:58:20;99435.03;;;0.24;100.00
25498;BME280;13406;53.380;7.226;2024-02-26T05:00:46;99644.00;;;1.96;100.00
25498;BME280;13406;53.380;7.226;2024-02-26T05:03:11;99510.69;;;1.11;100.00
25498;BME280;13406;53.380;7.226;2024-02-26T05:05:42;99595.72;;;1.94;100.00
25498;BME280;13406;53.380;7.226;2024-02-26T05:08:08;99505.66;;;1.33;100.00
25498;BME280;13406;53.380;7.226;2024-02-26T05:10:33;99540.56;;;1.20;100.00
25498;BME280;13406;53.380;7.226;2024-02-26T05:12:59;99449.72;;;0.90;100.00
25498;BME280;13406;53.380;7.226;2024-02-26T05:15:25;99545.34;;;1.17;100.00
25498;BME280;13406;53.380;7.226;2024-02-26T05:17:53;99451.69;;;0.96;100.00
25498;BME280;13406;53.380;7.226;2024-02-26T05:20:18;99531.50;;;1.54;100.00
25498;BME280;13406;53.380;7.226;2024-02-26T05:22:44;99679.53;;;2.64;100.00
25498;BME280;13406;53.380;7.226;2024-02-26T05:25:09;99499.03;;;0.98;100.00
25498;BME280;13406;53.380;7.226;2024-02-26T05:27:35;99533.78;;;1.26;100.00
25498;BME280;13406;53.380;7.226;2024-02-26T05:30:00;99493.31;;;1.25;100.00
25498;BME280;13406;53.380;7.226;2024-02-26T05:32:26;99458.44;;;0.99;100.00
25498;BME280;13406;53.380;7.226;2024-02-26T05:34:51;99373.31;;;0.88;100.00
25498;BME280;13406;53.380;7.226;2024-02-26T05:37:17;99700.28;;;2.52;100.00
25498;BME280;13406;53.380;7.226;2024-02-26T05:39:42;99622.38;;;2.23;100.00
25498;BME280;13406;53.380;7.226;2024-02-26T05:42:07;99781.72;;;2.73;100.00
25498;BME280;13406;53.380;7.226;2024-02-26T05:44:34;99507.09;;;1.04;100.00
25498;BME280;13406;53.380;7.226;2024-02-26T05:46:59;99621.72;;;1.43;100.00
25498;BME280;13406;53.380;7.226;2024-02-26T05:49:25;99908.56;;;3.38;100.00
25498;BME280;13406;53.380;7.226;2024-02-26T05:51:50;99736.63;;;2.27;100.00
25498;BME280;13406;53.380;7.226;2024-02-26T05:54:16;99527.78;;;0.76;100.00
25498;BME280;13406;53.380;7.226;2024-02-26T05:56:41;99596.16;;;1.27;100.00
25498;BME280;13406;53.380;7.226;2024-02-26T05:59:07;99602.16;;;1.68;100.00
25498;BME280;13406;53.380;7.226;2024-02-26T06:01:33;99615.09;;;1.47;100.00
25498;BME280;13406;53.380;7.226;2024-02-26T06:03:59;99839.81;;;2.35;100.00
25498;BME280;13406;53.380;7.226;2024-02-26T06:06:24;99748.97;;;1.87;100.00
25498;BME280;13406;53.380;7.226;2024-02-26T06:08:50;99722.88;;;1.84;100.00
25498;BME280;13406;53.380;7.226;2024-02-26T06:11:18;99689.28;;;1.37;100.00
25498;BME280;13406;53.380;7.226;2024-02-26T06:13:44;99657.28;;;0.99;100.00
25498;BME280;13406;53.380;7.226;2024-02-26T06:16:09;99564.94;;;0.58;100.00
25498;BME280;13406;53.380;7.226;2024-02-26T06:18:38;99708.88;;;1.67;100.00
25498;BME280;13406;53.380;7.226;2024-02-26T06:21:03;99704.75;;;1.65;100.00
25498;BME280;13406;53.380;7.226;2024-02-26T06:23:29;99612.75;;;0.80;100.00
25498;BME280;13406;53.380;7.226;2024-02-26T06:25:54;99699.78;;;1.70;100.00
25498;BME280;13406;53.380;7.226;2024-02-26T06:28:19;99566.06;;;0.64;100.00
25498;BME280;13406;53.380;7.226;2024-02-26T06:30:45;99860.09;;;2.43;100.00
25498;BME280;13406;53.380;7.226;2024-02-26T06:33:11;99640.44;;;1.08;100.00
25498;BME280;13406;53.380;7.226;2024-02-26T06:35:38;99820.75;;;1.60;100.00
25498;BME280;13406;53.380;7.226;2024-02-26T06:38:03;99759.31;;;1.25;100.00
25498;BME280;13406;53.380;7.226;2024-02-26T06:40:29;99948.78;;;2.47;100.00
25498;BME280;13406;53.380;7.226;2024-02-26T06:42:55;99570.69;;;0.54;100.00
25498;BME280;13406;53.380;7.226;2024-02-26T06:45:20;99937.03;;;2.58;100.00
25498;BME280;13406;53.380;7.226;2024-02-26T06:47:48;99775.13;;;1.08;100.00
25498;BME280;13406;53.380;7.226;2024-02-26T06:50:14;99985.97;;;2.78;100.00
25498;BME280;13406;53.380;7.226;2024-02-26T06:52:39;99695.06;;;1.24;100.00
25498;BME280;13406;53.380;7.226;2024-02-26T06:55:05;99731.56;;;1.45;100.00
25498;BME280;13406;53.380;7.226;2024-02-26T06:57:33;99768.22;;;1.07;100.00
25498;BME280;13406;53.380;7.226;2024-02-26T06:59:59;99868.13;;;2.10;100.00
25498;BME280;13406;53.380;7.226;2024-02-26T07:02:24;99780.25;;;1.59;100.00
25498;BME280;13406;53.380;7.226;2024-02-26T07:04:52;100044.56;;;2.75;100.00
25498;BME280;13406;53.380;7.226;2024-02-26T07:07:18;99853.94;;;1.70;100.00
25498;BME280;13406;53.380;7.226;2024-02-26T07:09:44;99853.44;;;1.91;100.00
25498;BME280;13406;53.380;7.226;2024-02-26T07:12:09;99875.72;;;2.05;100.00
25498;BME280;13406;53.380;7.226;2024-02-26T07:14:35;99831.78;;;1.88;100.00
25498;BME280;13406;53.380;7.226;2024-02-26T07:17:02;99720.00;;;1.05;100.00
25498;BME280;13406;53.380;7.226;2024-02-26T07:19:28;99888.31;;;2.11;100.00
25498;BME280;13406;53.380;7.226;2024-02-26T07:21:53;99823.03;;;1.87;100.00
25498;BME280;13406;53.380;7.226;2024-02-26T07:24:19;99817.09;;;1.77;100.00
25498;BME280;13406;53.380;7.226;2024-02-26T07:26:44;99989.06;;;2.98;100.00
25498;BME280;13406;53.380;7.226;2024-02-26T07:29:12;99758.81;;;2.18;100.00
25498;BME280;13406;53.380;7.226;2024-02-26T07:31:38;100031.66;;;3.36;100.00
25498;BME280;13406;53.380;7.226;2024-02-26T07:34:03;99772.66;;;2.28;100.00
25498;BME280;13406;53.380;7.226;2024-02-26T07:36:29;99669.47;;;1.33;100.00
25498;BME280;13406;53.380;7.226;2024-02-26T07:38:57;99791.28;;;2.03;100.00
25498;BME280;13406;53.380;7.226;2024-02-26T07:41:22;99699.41;;;1.89;100.00
25498;BME280;13406;53.380;7.226;2024-02-26T07:43:47;99719.03;;;2.34;100.00
25498;BME280;13406;53.380;7.226;2024-02-26T07:46:13;99612.56;;;2.01;100.00
25498;BME280;13406;53.380;7.226;2024-02-26T07:48:41;99548.69;;;1.10;100.00
25498;BME280;13406;53.380;7.226;2024-02-26T07:51:07;99967.78;;;3.54;100.00
25498;BME280;13406;53.380;7.226;2024-02-26T07:53:32;99730.97;;;2.30;100.00
25498;BME280;13406;53.380;7.226;2024-02-26T07:55:58;99796.41;;;2.84;100.00
25498;BME280;13406;53.380;7.226;2024-02-26T07:58:23;99442.53;;;1.07;100.00
25498;BME280;13406;53.380;7.226;2024-02-26T08:00:49;99674.69;;;2.44;100.00
25498;BME280;13406;53.380;7.226;2024-02-26T08:03:15;99848.03;;;3.65;100.00
25498;BME280;13406;53.380;7.226;2024-02-26T08:05:41;99696.13;;;2.58;100.00
25498;BME280;13406;53.380;7.226;2024-02-26T08:08:08;99698.69;;;2.66;100.00
25498;BME280;13406;53.380;7.226;2024-02-26T08:10:34;99869.22;;;3.19;100.00
25498;BME280;13406;53.380;7.226;2024-02-26T08:13:01;99839.16;;;3.04;100.00
25498;BME280;13406;53.380;7.226;2024-02-26T08:15:36;99813.50;;;3.04;100.00
25498;BME280;13406;53.380;7.226;2024-02-26T08:18:04;99860.94;;;3.45;100.00
25498;BME280;13406;53.380;7.226;2024-02-26T08:20:30;99724.91;;;2.21;100.00
25498;BME280;13406;53.380;7.226;2024-02-26T08:22:56;99646.16;;;1.92;100.00
25498;BME280;13406;53.380;7.226;2024-02-26T08:25:22;99844.97;;;3.07;100.00
25498;BME280;13406;53.380;7.226;2024-02-26T08:27:48;99690.53;;;2.13;100.00
25498;BME280;13406;53.380;7.226;2024-02-26T08:30:14;99626.94;;;2.07;100.00
25498;BME280;13406;53.380;7.226;2024-02-26T08:32:43;99548.22;;;1.86;100.00
25498;BME280;13406;53.380;7.226;2024-02-26T08:35:08;99467.28;;;1.76;100.00
25498;BME280;13406;53.380;7.226;2024-02-26T08:37:34;99623.72;;;2.42;100.00
25498;BME280;13406;53.380;7.226;2024-02-26T08:39:59;99604.94;;;2.98;100.00
25498;BME280;13406;53.380;7.226;2024-02-26T08:42:25;99494.94;;;2.58;100.00
25498;BME280;13406;53.380;7.226;2024-02-26T08:44:50;99318.09;;;1.33;100.00
25498;BME280;13406;53.380;7.226;2024-02-26T08:47:16;99503.13;;;2.63;100.00
25498;BME280;13406;53.380;7.226;2024-02-26T08:49:45;99407.94;;;2.84;100.00
25498;BME280;13406;53.380;7.226;2024-02-26T08:52:10;99261.84;;;2.15;100.00
25498;BME280;13406;53.380;7.226;2024-02-26T08:54:36;99325.03;;;2.39;100.00
25498;BME280;13406;53.380;7.226;2024-02-26T08:57:02;99306.81;;;2.44;100.00
25498;BME280;13406;53.380;7.226;2024-02-26T08:59:28;99159.78;;;1.91;100.00
25498;BME280;13406;53.380;7.226;2024-02-26T09:01:53;99296.44;;;2.79;100.00
25498;BME280;13406;53.380;7.226;2024-02-26T09:04:19;99453.34;;;3.69;100.00
25498;BME280;13406;53.380;7.226;2024-02-26T09:06:44;99424.22;;;3.17;100.00
25498;BME280;13406;53.380;7.226;2024-02-26T09:09:10;99261.06;;;2.51;100.00
25498;BME280;13406;53.380;7.226;2024-02-26T09:11:36;99287.63;;;3.15;100.00
25498;BME280;13406;53.380;7.226;2024-02-26T09:14:01;99173.00;;;2.78;100.00
25498;BME280;13406;53.380;7.226;2024-02-26T09:16:29;99036.69;;;2.24;100.00
25498;BME280;13406;53.380;7.226;2024-02-26T09:18:54;99376.47;;;4.53;100.00
25498;BME280;13406;53.380;7.226;2024-02-26T09:21:20;99177.88;;;3.24;100.00
25498;BME280;13406;53.380;7.226;2024-02-26T09:23:52;99306.13;;;4.01;100.00
25498;BME280;13406;53.380;7.226;2024-02-26T09:26:18;99265.47;;;3.94;100.00
25498;BME280;13406;53.380;7.226;2024-02-26T09:28:44;99247.09;;;3.64;100.00
25498;BME280;13406;53.380;7.226;2024-02-26T09:31:10;99247.34;;;3.97;100.00
25498;BME280;13406;53.380;7.226;2024-02-26T09:33:35;99102.03;;;2.67;100.00
25498;BME280;13406;53.380;7.226;2024-02-26T09:36:01;99262.72;;;3.80;100.00
25498;BME280;13406;53.380;7.226;2024-02-26T09:38:27;99015.56;;;2.53;100.00
25498;BME280;13406;53.380;7.226;2024-02-26T09:40:53;99135.91;;;3.28;100.00
25498;BME280;13406;53.380;7.226;2024-02-26T09:43:21;98964.88;;;2.28;100.00
25498;BME280;13406;53.380;7.226;2024-02-26T09:45:50;99006.81;;;2.52;100.00
25498;BME280;13406;53.380;7.226;2024-02-26T09:48:17;98981.59;;;2.56;100.00
25498;BME280;13406;53.380;7.226;2024-02-26T09:50:43;99310.75;;;4.62;100.00
25498;BME280;13406;53.380;7.226;2024-02-26T09:53:11;99093.09;;;3.24;100.00
25498;BME280;13406;53.380;7.226;2024-02-26T09:55:37;99130.22;;;3.31;100.00
25498;BME280;13406;53.380;7.226;2024-02-26T09:58:04;99172.41;;;3.60;100.00
25498;BME280;13406;53.380;7.226;2024-02-26T10:00:31;99169.00;;;3.67;100.00
25498;BME280;13406;53.380;7.226;2024-02-26T10:03:03;98944.69;;;2.48;100.00
25498;BME280;13406;53.380;7.226;2024-02-26T10:05:29;99147.22;;;3.43;100.00
25498;BME280;13406;53.380;7.226;2024-02-26T10:07:56;99259.03;;;4.10;100.00
25498;BME280;13406;53.380;7.226;2024-02-26T10:10:23;99176.41;;;3.50;100.00
25498;BME280;13406;53.380;7.226;2024-02-26T10:12:49;99266.28;;;4.29;100.00
25498;BME280;13406;53.380;7.226;2024-02-26T10:15:15;99294.00;;;4.20;100.00
25498;BME280;13406;53.380;7.226;2024-02-26T10:17:41;99150.13;;;3.20;100.00
25498;BME280;13406;53.380;7.226;2024-02-26T10:20:16;99555.94;;;5.60;100.00
25498;BME280;13406;53.380;7.226;2024-02-26T10:22:43;99173.34;;;3.18;100.00
25498;BME280;13406;53.380;7.226;2024-02-26T10:25:09;99495.94;;;4.74;100.00
25498;BME280;13406;53.380;7.226;2024-02-26T10:27:35;99495.47;;;4.64;100.00
25498;BME280;13406;53.380;7.226;2024-02-26T10:30:05;99408.28;;;4.74;100.00
25498;BME280;13406;53.380;7.226;2024-02-26T10:32:43;99444.50;;;4.54;100.00
25498;BME280;13406;53.380;7.226;2024-02-26T10:35:13;99224.09;;;3.43;100.00
25498;BME280;13406;53.380;7.226;2024-02-26T10:37:42;99398.19;;;4.28;100.00
25498;BME280;13406;53.380;7.226;2024-02-26T10:40:11;99305.84;;;3.89;100.00
25498;BME280;13406;53.380;7.226;2024-02-26T10:42:37;99386.44;;;4.44;100.00
25498;BME280;13406;53.380;7.226;2024-02-26T10:45:05;99343.69;;;3.76;100.00
25498;BME280;13406;53.380;7.226;2024-02-26T10:47:31;99195.88;;;3.07;100.00
25498;BME280;13406;53.380;7.226;2024-02-26T10:49:59;99379.25;;;4.10;100.00
25498;BME280;13406;53.380;7.226;2024-02-26T10:52:28;99373.63;;;4.20;100.00
25498;BME280;13406;53.380;7.226;2024-02-26T10:54:56;99526.41;;;5.07;100.00
25498;BME280;13406;53.380;7.226;2024-02-26T10:57:24;99346.50;;;4.24;100.00
25498;BME280;13406;53.380;7.226;2024-02-26T10:59:51;99429.31;;;4.69;100.00
25498;BME280;13406;53.380;7.226;2024-02-26T11:02:17;99429.91;;;4.71;100.00
25498;BME280;13406;53.380;7.226;2024-02-26T11:04:43;99260.50;;;3.84;100.00
25498;BME280;13406;53.380;7.226;2024-02-26T11:07:09;99233.06;;;3.70;100.00
25498;BME280;13406;53.380;7.226;2024-02-26T11:09:35;99378.50;;;4.51;100.00
25498;BME280;13406;53.380;7.226;2024-02-26T11:12:15;99295.66;;;3.93;100.00
25498;BME280;13406;53.380;7.226;2024-02-26T11:14:42;99416.19;;;4.68;100.00
25498;BME280;13406;53.380;7.226;2024-02-26T11:17:11;99340.75;;;3.93;100.00
25498;BME280;13406;53.380;7.226;2024-02-26T11:19:38;99507.19;;;5.11;100.00
25498;BME280;13406;53.380;7.226;2024-02-26T11:22:05;99393.00;;;3.92;100.00
25498;BME280;13406;53.380;7.226;2024-02-26T11:24:30;99473.09;;;4.52;100.00
25498;BME280;13406;53.380;7.226;2024-02-26T11:27:01;99407.53;;;4.24;100.00
25498;BME280;13406;53.380;7.226;2024-02-26T11:29:32;99353.91;;;4.07;100.00
25498;BME280;13406;53.380;7.226;2024-02-26T11:32:00;99514.59;;;5.16;100.00
25498;BME280;13406;53.380;7.226;2024-02-26T11:34:26;99514.47;;;4.96;100.00
25498;BME280;13406;53.380;7.226;2024-02-26T11:36:53;99547.69;;;5.07;100.00
25498;BME280;13406;53.380;7.226;2024-02-26T11:39:19;99265.69;;;3.43;100.00
25498;BME280;13406;53.380;7.226;2024-02-26T11:41:45;99467.88;;;4.65;100.00
25498;BME280;13406;53.380;7.226;2024-02-26T11:44:12;99492.84;;;4.43;100.00
25498;BME280;13406;53.380;7.226;2024-02-26T11:46:42;99514.91;;;4.71;100.00
25498;BME280;13406;53.380;7.226;2024-02-26T11:51:55;99541.06;;;4.96;100.00
25498;BME280;13406;53.380;7.226;2024-02-26T11:54:51;99454.00;;;3.92;100.00
25498;BME280;13406;53.380;7.226;2024-02-26T11:57:39;99367.13;;;3.51;100.00
25498;BME280;13406;53.380;7.226;2024-02-26T12:00:11;99734.19;;;5.66;100.00
25498;BME280;13406;53.380;7.226;2024-02-26T12:02:49;99364.41;;;3.45;100.00
25498;BME280;13406;53.380;7.226;2024-02-26T12:05:20;99650.13;;;5.09;100.00
25498;BME280;13406;53.380;7.226;2024-02-26T12:07:59;99533.28;;;4.45;100.00
25498;BME280;13406;53.380;7.226;2024-02-26T12:10:25;99747.41;;;5.81;100.00
25498;BME280;13406;53.380;7.226;2024-02-26T12:13:15;99580.00;;;4.61;100.00
25498;BME280;13406;53.380;7.226;2024-02-26T12:15:45;99586.31;;;4.60;100.00
25498;BME280;13406;53.380;7.226;2024-02-26T12:18:17;99429.44;;;3.62;100.00
25498;BME280;13406;53.380;7.226;2024-02-26T12:20:42;99508.97;;;4.20;100.00
25498;BME280;13406;53.380;7.226;2024-02-26T12:23:16;99458.59;;;4.05;100.00
25498;BME280;13406;53.380;7.226;2024-02-26T12:25:44;99468.34;;;3.98;100.00
25498;BME280;13406;53.380;7.226;2024-02-26T12:31:35;99509.72;;;4.14;100.00
25498;BME280;13406;53.380;7.226;2024-02-26T12:34:04;99531.78;;;4.14;100.00
25498;BME280;13406;53.380;7.226;2024-02-26T12:36:30;99459.69;;;3.89;100.00
25498;BME280;13406;53.380;7.226;2024-02-26T12:38:58;99472.84;;;3.97;100.00
25498;BME280;13406;53.380;7.226;2024-02-26T12:41:28;99437.63;;;3.67;100.00
25498;BME280;13406;53.380;7.226;2024-02-26T12:43:55;99532.53;;;4.29;100.00
25498;BME280;13406;53.380;7.226;2024-02-26T12:46:21;99373.47;;;3.35;100.00
25498;BME280;13406;53.380;7.226;2024-02-26T12:48:49;99423.63;;;3.73;100.00
25498;BME280;13406;53.380;7.226;2024-02-26T12:51:16;99596.97;;;5.09;100.00
25498;BME280;13406;53.380;7.226;2024-02-26T12:53:41;99685.50;;;5.38;100.00
25498;BME280;13406;53.380;7.226;2024-02-26T12:56:08;99441.28;;;3.88;100.00
25498;BME280;13406;53.380;7.226;2024-02-26T12:58:34;99362.25;;;3.55;100.00
25498;BME280;13406;53.380;7.226;2024-02-26T13:01:03;99382.41;;;3.71;100.00
25498;BME280;13406;53.380;7.226;2024-02-26T13:03:32;99445.78;;;3.66;100.00